sensor_id;sensor_type;location;lat;lon;timestamp;pressure;altitude;pressure_sealevel;temperature;humidity
63691;BME280;49837;57.280;27.070;2023-02-21T00:00:48;97050.05;;;-3.78;100.0
63691;BME280;49837;57.280;27.070;2023-02-21T00:01:49;97053.47;;;-3.78;100.0
63691;BME280;49837;57.280;27.070;2023-02-21T00:02:49;97054.58;;;-3.77;100.0
63691;BME280;49837;57.280;27.070;2023-02-21T00:03:49;97055.47;;;-3.79;100.0
63691;BME280;49837;57.280;27.070;2023-02-21T00:04:50;97049.59;;;-3.83;100.0
63691;BME280;49837;57.280;27.070;2023-02-21T00:05:50;97049.52;;;-3.87;100.0
63691;BME280;49837;57.280;27.070;2023-02-21T00:06:51;97051.64;;;-3.83;100.0
63691;BME280;49837;57.280;27.070;2023-02-21T00:07:51;97053.91;;;-3.8;100.0
63691;BME280;49837;57.280;27.070;2023-02-21T00:08:51;97054.34;;;-3.81;100.0
63691;BME280;49837;57.280;27.070;2023-02-21T00:09:52;97052.76;;;-3.83;100.0
63691;BME280;49837;57.280;27.070;2023-02-21T00:10:52;97053.19;;;-3.79;100.0
63691;BME280;49837;57.280;27.070;2023-02-21T00:11:53;97053.44;;;-3.77;100.0
63691;BME280;49837;57.280;27.070;2023-02-21T00:12:53;97058.26;;;-3.77;100.0
63691;BME280;49837;57.280;27.070;2023-02-21T00:13:53;97056.02;;;-3.76;100.0
63691;BME280;49837;57.280;27.070;2023-02-21T00:14:54;97059.05;;;-3.8;100.0
63691;BME280;49837;57.280;27.070;2023-02-21T00:15:54;97060.53;;;-3.8;100.0
63691;BME280;49837;57.280;27.070;2023-02-21T00:16:55;97063.0;;;-3.78;100.0
63691;BME280;49837;57.280;27.070;2023-02-21T00:17:55;97062.67;;;-3.82;100.0
63691;BME280;49837;57.280;27.070;2023-02-21T00:18:55;97063.48;;;-3.78;100.0
63691;BME280;49837;57.280;27.070;2023-02-21T00:19:56;97068.38;;;-3.78;100.0
63691;BME280;49837;57.280;27.070;2023-02-21T00:20:56;97066.42;;;-3.78;100.0
63691;BME280;49837;57.280;27.070;2023-02-21T00:21:57;97072.72;;;-3.83;100.0
63691;BME280;49837;57.280;27.070;2023-02-21T00:22:57;97067.65;;;-3.83;100.0
63691;BME280;49837;57.280;27.070;2023-02-21T00:23:57;97068.26;;;-3.83;100.0
63691;BME280;49837;57.280;27.070;2023-02-21T00:24:58;97071.56;;;-3.82;100.0
63691;BME280;49837;57.280;27.070;2023-02-21T00:25:58;97068.51;;;-3.88;100.0
63691;BME280;49837;57.280;27.070;2023-02-21T00:26:58;97071.49;;;-3.82;100.0
63691;BME280;49837;57.280;27.070;2023-02-21T00:28:00;97069.93;;;-3.83;100.0
63691;BME280;49837;57.280;27.070;2023-02-21T00:29:00;97066.19;;;-3.79;100.0
63691;BME280;49837;57.280;27.070;2023-02-21T00:30:00;97068.97;;;-3.84;100.0
63691;BME280;49837;57.280;27.070;2023-02-21T00:31:00;97078.94;;;-3.84;100.0
63691;BME280;49837;57.280;27.070;2023-02-21T00:32:00;97074.8;;;-3.84;100.0
63691;BME280;49837;57.280;27.070;2023-02-21T00:33:01;97067.02;;;-3.9;100.0
63691;BME280;49837;57.280;27.070;2023-02-21T00:34:01;97074.96;;;-3.93;100.0
63691;BME280;49837;57.280;27.070;2023-02-21T00:35:02;97075.28;;;-3.88;100.0
63691;BME280;49837;57.280;27.070;2023-02-21T00:36:03;97076.7;;;-3.86;100.0
63691;BME280;49837;57.280;27.070;2023-02-21T00:37:03;97081.05;;;-3.88;100.0
63691;BME280;49837;57.280;27.070;2023-02-21T00:38:03;97080.75;;;-3.85;100.0
63691;BME280;49837;57.280;27.070;2023-02-21T00:39:03;97077.36;;;-3.82;100.0
63691;BME280;49837;57.280;27.070;2023-02-21T00:40:04;97081.8;;;-3.82;100.0
63691;BME280;49837;57.280;27.070;2023-02-21T00:41:04;97087.82;;;-3.84;100.0
63691;BME280;49837;57.280;27.070;2023-02-21T00:42:05;97089.59;;;-3.83;100.0
63691;BME280;49837;57.280;27.070;2023-02-21T00:43:05;97091.75;;;-3.85;100.0
63691;BME280;49837;57.280;27.070;2023-02-21T00:44:05;97091.41;;;-3.85;100.0
63691;BME280;49837;57.280;27.070;2023-02-21T00:45:06;97093.7;;;-3.85;100.0
63691;BME280;49837;57.280;27.070;2023-02-21T00:46:06;97096.69;;;-3.84;100.0
63691;BME280;49837;57.280;27.070;2023-02-21T00:47:07;97102.36;;;-3.84;100.0
63691;BME280;49837;57.280;27.070;2023-02-21T00:48:07;97099.5;;;-3.8;100.0
63691;BME280;49837;57.280;27.070;2023-02-21T00:49:07;97103.59;;;-3.84;100.0
63691;BME280;49837;57.280;27.070;2023-02-21T00:50:08;97104.5;;;-3.85;100.0
63691;BME280;49837;57.280;27.070;2023-02-21T00:51:09;97107.84;;;-3.83;100.0
63691;BME280;49837;57.280;27.070;2023-02-21T00:52:09;97108.41;;;-3.88;100.0
63691;BME280;49837;57.280;27.070;2023-02-21T00:53:09;97112.25;;;-3.88;100.0
63691;BME280;49837;57.280;27.070;2023-02-21T00:54:09;97115.48;;;-3.87;100.0
63691;BME280;49837;57.280;27.070;2023-02-21T00:55:10;97113.94;;;-3.88;100.0
63691;BME280;49837;57.280;27.070;2023-02-21T00:56:10;97112.98;;;-3.92;100.0
63691;BME280;49837;57.280;27.070;2023-02-21T00:57:11;97118.41;;;-3.96;100.0
63691;BME280;49837;57.280;27.070;2023-02-21T00:58:11;97118.03;;;-4.0;100.0
63691;BME280;49837;57.280;27.070;2023-02-21T00:59:11;97121.23;;;-3.94;100.0
63691;BME280;49837;57.280;27.070;2023-02-21T01:00:20;97117.11;;;-3.87;100.0
63691;BME280;49837;57.280;27.070;2023-02-21T01:01:13;97122.64;;;-3.91;100.0
63691;BME280;49837;57.280;27.070;2023-02-21T01:02:14;97115.54;;;-3.9;100.0
63691;BME280;49837;57.280;27.070;2023-02-21T01:03:14;97122.62;;;-3.94;100.0
63691;BME280;49837;57.280;27.070;2023-02-21T01:04:15;97125.3;;;-3.94;100.0
63691;BME280;49837;57.280;27.070;2023-02-21T01:05:15;97125.45;;;-3.89;100.0
63691;BME280;49837;57.280;27.070;2023-02-21T01:06:15;97126.45;;;-3.9;100.0
63691;BME280;49837;57.280;27.070;2023-02-21T01:07:16;97126.21;;;-3.86;100.0
63691;BME280;49837;57.280;27.070;2023-02-21T01:08:16;97125.31;;;-3.87;100.0
63691;BME280;49837;57.280;27.070;2023-02-21T01:09:16;97128.23;;;-3.89;100.0
63691;BME280;49837;57.280;27.070;2023-02-21T01:10:17;97125.08;;;-3.91;100.0
63691;BME280;49837;57.280;27.070;2023-02-21T01:11:19;97126.52;;;-3.9;100.0
63691;BME280;49837;57.280;27.070;2023-02-21T01:12:18;97125.71;;;-3.9;100.0
63691;BME280;49837;57.280;27.070;2023-02-21T01:13:18;97127.88;;;-3.93;100.0
63691;BME280;49837;57.280;27.070;2023-02-21T01:14:18;97126.88;;;-3.95;100.0
63691;BME280;49837;57.280;27.070;2023-02-21T01:15:19;97124.58;;;-3.97;100.0
63691;BME280;49837;57.280;27.070;2023-02-21T01:16:19;97126.43;;;-3.98;100.0
63691;BME280;49837;57.280;27.070;2023-02-21T01:17:20;97134.23;;;-3.96;100.0
63691;BME280;49837;57.280;27.070;2023-02-21T01:18:20;97128.61;;;-4.0;100.0
63691;BME280;49837;57.280;27.070;2023-02-21T01:19:20;97128.06;;;-4.0;100.0
63691;BME280;49837;57.280;27.070;2023-02-21T01:20:21;97133.33;;;-4.01;100.0
63691;BME280;49837;57.280;27.070;2023-02-21T01:21:21;97132.92;;;-3.99;100.0
63691;BME280;49837;57.280;27.070;2023-02-21T01:22:22;97136.73;;;-3.96;100.0
63691;BME280;49837;57.280;27.070;2023-02-21T01:23:22;97133.75;;;-4.01;100.0
63691;BME280;49837;57.280;27.070;2023-02-21T01:24:23;97135.23;;;-3.97;100.0
63691;BME280;49837;57.280;27.070;2023-02-21T01:25:23;97138.28;;;-3.95;100.0
63691;BME280;49837;57.280;27.070;2023-02-21T01:26:23;97135.91;;;-4.0;100.0
63691;BME280;49837;57.280;27.070;2023-02-21T01:27:24;97137.48;;;-3.97;100.0
63691;BME280;49837;57.280;27.070;2023-02-21T01:28:24;97137.88;;;-3.99;100.0
63691;BME280;49837;57.280;27.070;2023-02-21T01:29:25;97138.27;;;-4.04;100.0
63691;BME280;49837;57.280;27.070;2023-02-21T01:30:25;97135.98;;;-4.02;99.96
63691;BME280;49837;57.280;27.070;2023-02-21T01:31:25;97135.05;;;-4.04;99.82
63691;BME280;49837;57.280;27.070;2023-02-21T01:32:26;97140.5;;;-4.0;99.78
63691;BME280;49837;57.280;27.070;2023-02-21T01:33:26;97141.57;;;-4.0;99.81
63691;BME280;49837;57.280;27.070;2023-02-21T01:34:27;97138.19;;;-4.03;99.77
63691;BME280;49837;57.280;27.070;2023-02-21T01:35:27;97142.8;;;-4.09;99.81
63691;BME280;49837;57.280;27.070;2023-02-21T01:36:27;97142.19;;;-4.08;99.83
63691;BME280;49837;57.280;27.070;2023-02-21T01:37:28;97147.27;;;-4.05;99.88
63691;BME280;49837;57.280;27.070;2023-02-21T01:38:28;97145.39;;;-4.05;99.94
63691;BME280;49837;57.280;27.070;2023-02-21T01:39:29;97147.58;;;-4.05;99.94
63691;BME280;49837;57.280;27.070;2023-02-21T01:40:29;97145.28;;;-4.08;99.93
63691;BME280;49837;57.280;27.070;2023-02-21T01:41:29;97149.08;;;-4.14;99.85
63691;BME280;49837;57.280;27.070;2023-02-21T01:42:30;97148.14;;;-4.16;99.91
63691;BME280;49837;57.280;27.070;2023-02-21T01:43:30;97148.55;;;-4.13;99.91
63691;BME280;49837;57.280;27.070;2023-02-21T01:44:44;97149.7;;;-4.09;99.91
63691;BME280;49837;57.280;27.070;2023-02-21T01:45:40;97156.7;;;-4.12;99.72
63691;BME280;49837;57.280;27.070;2023-02-21T01:46:34;97154.17;;;-4.08;99.66
63691;BME280;49837;57.280;27.070;2023-02-21T01:47:34;97155.88;;;-4.08;99.67
63691;BME280;49837;57.280;27.070;2023-02-21T01:48:35;97155.42;;;-4.1;99.59
63691;BME280;49837;57.280;27.070;2023-02-21T01:49:37;97154.69;;;-4.06;99.57
63691;BME280;49837;57.280;27.070;2023-02-21T01:50:35;97159.94;;;-4.08;99.55
63691;BME280;49837;57.280;27.070;2023-02-21T01:51:39;97156.99;;;-4.07;99.48
63691;BME280;49837;57.280;27.070;2023-02-21T01:52:37;97161.57;;;-4.08;99.41
63691;BME280;49837;57.280;27.070;2023-02-21T01:53:37;97163.09;;;-4.11;99.39
63691;BME280;49837;57.280;27.070;2023-02-21T01:54:42;97165.27;;;-4.14;99.33
63691;BME280;49837;57.280;27.070;2023-02-21T01:55:41;97163.33;;;-4.15;99.33
63691;BME280;49837;57.280;27.070;2023-02-21T01:56:42;97164.05;;;-4.15;99.37
63691;BME280;49837;57.280;27.070;2023-02-21T01:57:43;97166.75;;;-4.15;99.28
63691;BME280;49837;57.280;27.070;2023-02-21T01:58:43;97166.17;;;-4.14;99.26
63691;BME280;49837;57.280;27.070;2023-02-21T01:59:43;97170.75;;;-4.15;99.28
63691;BME280;49837;57.280;27.070;2023-02-21T02:00:43;97168.08;;;-4.2;99.24
63691;BME280;49837;57.280;27.070;2023-02-21T02:02:04;97165.83;;;-4.18;99.29
63691;BME280;49837;57.280;27.070;2023-02-21T02:03:51;97169.11;;;-4.23;99.17
63691;BME280;49837;57.280;27.070;2023-02-21T02:04:51;97164.89;;;-4.16;99.28
63691;BME280;49837;57.280;27.070;2023-02-21T02:06:09;97166.7;;;-4.17;99.29
63691;BME280;49837;57.280;27.070;2023-02-21T02:06:51;97165.02;;;-4.23;99.18
63691;BME280;49837;57.280;27.070;2023-02-21T02:07:52;97173.45;;;-4.25;99.14
63691;BME280;49837;57.280;27.070;2023-02-21T02:08:52;97172.94;;;-4.24;99.16
63691;BME280;49837;57.280;27.070;2023-02-21T02:09:52;97169.69;;;-4.24;99.21
63691;BME280;49837;57.280;27.070;2023-02-21T02:44:20;97229.3;;;-4.45;98.3
63691;BME280;49837;57.280;27.070;2023-02-21T02:46:26;97232.24;;;-4.42;98.4
63691;BME280;49837;57.280;27.070;2023-02-21T02:47:30;97236.22;;;-4.46;98.42
63691;BME280;49837;57.280;27.070;2023-02-21T02:49:32;97239.64;;;-4.41;98.33
63691;BME280;49837;57.280;27.070;2023-02-21T02:50:33;97240.36;;;-4.45;98.22
63691;BME280;49837;57.280;27.070;2023-02-21T02:51:34;97241.27;;;-4.46;98.11
63691;BME280;49837;57.280;27.070;2023-02-21T02:52:34;97242.19;;;-4.47;98.07
63691;BME280;49837;57.280;27.070;2023-02-21T02:53:34;97241.39;;;-4.49;98.08
63691;BME280;49837;57.280;27.070;2023-02-21T02:54:34;97242.3;;;-4.49;98.15
63691;BME280;49837;57.280;27.070;2023-02-21T02:56:36;97246.58;;;-4.47;98.21
63691;BME280;49837;57.280;27.070;2023-02-21T02:57:37;97244.0;;;-4.54;98.08
63691;BME280;49837;57.280;27.070;2023-02-21T02:59:43;97250.08;;;-4.42;98.22
63691;BME280;49837;57.280;27.070;2023-02-21T03:00:47;97251.95;;;-4.47;98.02
63691;BME280;49837;57.280;27.070;2023-02-21T03:11:07;97273.78;;;-4.59;97.94
63691;BME280;49837;57.280;27.070;2023-02-21T03:14:07;97280.96;;;-4.56;97.96
63691;BME280;49837;57.280;27.070;2023-02-21T03:17:08;97291.09;;;-4.54;97.81
63691;BME280;49837;57.280;27.070;2023-02-21T03:19:14;97293.83;;;-4.57;97.9
63691;BME280;49837;57.280;27.070;2023-02-21T03:20:14;97299.08;;;-4.6;97.84
63691;BME280;49837;57.280;27.070;2023-02-21T03:22:21;97300.72;;;-4.56;97.89
63691;BME280;49837;57.280;27.070;2023-02-21T03:23:21;97307.94;;;-4.6;97.86
63691;BME280;49837;57.280;27.070;2023-02-21T03:24:22;97312.9;;;-4.59;97.94
63691;BME280;49837;57.280;27.070;2023-02-21T03:25:22;97307.67;;;-4.64;97.81
63691;BME280;49837;57.280;27.070;2023-02-21T03:26:21;97314.35;;;-4.63;97.7
63691;BME280;49837;57.280;27.070;2023-02-21T03:27:22;97315.09;;;-4.6;97.66
63691;BME280;49837;57.280;27.070;2023-02-21T03:28:23;97310.83;;;-4.62;97.77
63691;BME280;49837;57.280;27.070;2023-02-21T03:29:23;97318.32;;;-4.63;97.81
63691;BME280;49837;57.280;27.070;2023-02-21T03:30:24;97319.53;;;-4.63;97.66
63691;BME280;49837;57.280;27.070;2023-02-21T03:31:27;97321.92;;;-4.64;97.55
63691;BME280;49837;57.280;27.070;2023-02-21T03:32:30;97325.21;;;-4.67;97.59
63691;BME280;49837;57.280;27.070;2023-02-21T03:33:29;97325.8;;;-4.69;97.6
63691;BME280;49837;57.280;27.070;2023-02-21T03:34:30;97324.02;;;-4.64;97.65
63691;BME280;49837;57.280;27.070;2023-02-21T03:35:30;97333.56;;;-4.66;97.55
63691;BME280;49837;57.280;27.070;2023-02-21T03:36:31;97330.5;;;-4.66;97.59
63691;BME280;49837;57.280;27.070;2023-02-21T03:37:35;97327.55;;;-4.64;97.46
63691;BME280;49837;57.280;27.070;2023-02-21T03:38:33;97334.81;;;-4.62;97.49
63691;BME280;49837;57.280;27.070;2023-02-21T03:39:33;97330.47;;;-4.66;97.45
63691;BME280;49837;57.280;27.070;2023-02-21T03:40:34;97330.85;;;-4.68;97.32
63691;BME280;49837;57.280;27.070;2023-02-21T03:41:34;97333.39;;;-4.7;97.26
63691;BME280;49837;57.280;27.070;2023-02-21T03:42:35;97337.83;;;-4.67;97.23
63691;BME280;49837;57.280;27.070;2023-02-21T03:43:35;97336.19;;;-4.72;97.19
63691;BME280;49837;57.280;27.070;2023-02-21T03:44:35;97336.2;;;-4.68;97.4
63691;BME280;49837;57.280;27.070;2023-02-21T03:45:36;97338.41;;;-4.68;97.51
63691;BME280;49837;57.280;27.070;2023-02-21T03:46:36;97337.23;;;-4.66;97.48
63691;BME280;49837;57.280;27.070;2023-02-21T03:47:37;97347.19;;;-4.7;97.59
63691;BME280;49837;57.280;27.070;2023-02-21T03:48:37;97340.16;;;-4.77;97.54
63691;BME280;49837;57.280;27.070;2023-02-21T03:49:37;97341.04;;;-4.72;97.67
63691;BME280;49837;57.280;27.070;2023-02-21T03:50:38;97343.47;;;-4.7;97.59
63691;BME280;49837;57.280;27.070;2023-02-21T03:51:38;97343.21;;;-4.74;97.66
63691;BME280;49837;57.280;27.070;2023-02-21T03:52:39;97343.58;;;-4.78;97.57
63691;BME280;49837;57.280;27.070;2023-02-21T03:53:39;97348.77;;;-4.7;97.73
63691;BME280;49837;57.280;27.070;2023-02-21T03:54:40;97352.76;;;-4.71;97.76
63691;BME280;49837;57.280;27.070;2023-02-21T03:55:40;97352.52;;;-4.72;97.69
63691;BME280;49837;57.280;27.070;2023-02-21T03:56:40;97357.77;;;-4.69;97.74
63691;BME280;49837;57.280;27.070;2023-02-21T03:57:41;97358.05;;;-4.7;97.69
63691;BME280;49837;57.280;27.070;2023-02-21T03:58:41;97361.34;;;-4.73;97.61
63691;BME280;49837;57.280;27.070;2023-02-21T03:59:42;97361.98;;;-4.68;97.62
63691;BME280;49837;57.280;27.070;2023-02-21T04:00:42;97365.55;;;-4.67;97.45
63691;BME280;49837;57.280;27.070;2023-02-21T04:01:42;97369.35;;;-4.73;97.55
63691;BME280;49837;57.280;27.070;2023-02-21T04:02:43;97362.2;;;-4.84;97.68
63691;BME280;49837;57.280;27.070;2023-02-21T04:03:43;97366.27;;;-4.84;97.85
63691;BME280;49837;57.280;27.070;2023-02-21T04:04:44;97369.56;;;-4.82;97.82
63691;BME280;49837;57.280;27.070;2023-02-21T04:05:44;97370.45;;;-4.8;97.93
63691;BME280;49837;57.280;27.070;2023-02-21T04:06:44;97372.56;;;-4.8;97.8
63691;BME280;49837;57.280;27.070;2023-02-21T04:07:45;97379.88;;;-4.75;97.75
63691;BME280;49837;57.280;27.070;2023-02-21T04:08:45;97377.35;;;-4.8;97.69
63691;BME280;49837;57.280;27.070;2023-02-21T04:09:46;97379.72;;;-4.8;97.74
63691;BME280;49837;57.280;27.070;2023-02-21T04:10:46;97383.2;;;-4.8;97.73
63691;BME280;49837;57.280;27.070;2023-02-21T04:11:48;97385.81;;;-4.8;97.64
63691;BME280;49837;57.280;27.070;2023-02-21T04:12:49;97392.14;;;-4.8;97.55
63691;BME280;49837;57.280;27.070;2023-02-21T04:13:49;97387.73;;;-4.83;97.52
63691;BME280;49837;57.280;27.070;2023-02-21T04:14:49;97390.83;;;-4.78;97.72
63691;BME280;49837;57.280;27.070;2023-02-21T04:15:50;97393.56;;;-4.75;97.69
63691;BME280;49837;57.280;27.070;2023-02-21T04:16:50;97398.8;;;-4.78;97.62
63691;BME280;49837;57.280;27.070;2023-02-21T04:17:51;97397.32;;;-4.78;97.52
63691;BME280;49837;57.280;27.070;2023-02-21T04:18:51;97400.62;;;-4.74;97.34
63691;BME280;49837;57.280;27.070;2023-02-21T04:19:52;97401.97;;;-4.71;97.3
63691;BME280;49837;57.280;27.070;2023-02-21T04:20:52;97403.55;;;-4.75;97.24
63691;BME280;49837;57.280;27.070;2023-02-21T04:21:52;97402.06;;;-4.8;97.19
63691;BME280;49837;57.280;27.070;2023-02-21T04:22:53;97404.61;;;-4.81;97.23
63691;BME280;49837;57.280;27.070;2023-02-21T04:23:54;97414.38;;;-4.87;97.23
63691;BME280;49837;57.280;27.070;2023-02-21T04:24:55;97410.3;;;-4.88;97.32
63691;BME280;49837;57.280;27.070;2023-02-21T04:25:55;97414.35;;;-4.87;97.41
63691;BME280;49837;57.280;27.070;2023-02-21T04:26:55;97416.73;;;-4.83;97.32
63691;BME280;49837;57.280;27.070;2023-02-21T04:27:56;97418.38;;;-4.92;97.08
63691;BME280;49837;57.280;27.070;2023-02-21T04:28:56;97421.91;;;-4.87;96.96
63691;BME280;49837;57.280;27.070;2023-02-21T04:29:56;97417.7;;;-4.82;96.97
63691;BME280;49837;57.280;27.070;2023-02-21T04:30:58;97428.92;;;-4.82;96.84
63691;BME280;49837;57.280;27.070;2023-02-21T04:31:57;97432.27;;;-4.82;96.92
63691;BME280;49837;57.280;27.070;2023-02-21T04:32:58;97432.49;;;-4.87;96.88
63691;BME280;49837;57.280;27.070;2023-02-21T04:33:59;97438.53;;;-4.89;96.85
63691;BME280;49837;57.280;27.070;2023-02-21T04:35:03;97440.11;;;-4.85;97.1
63691;BME280;49837;57.280;27.070;2023-02-21T04:36:04;97443.85;;;-4.87;97.08
63691;BME280;49837;57.280;27.070;2023-02-21T04:37:04;97446.75;;;-4.83;97.08
63691;BME280;49837;57.280;27.070;2023-02-21T04:38:04;97448.6;;;-4.88;96.85
63691;BME280;49837;57.280;27.070;2023-02-21T04:39:05;97451.25;;;-4.92;96.86
63691;BME280;49837;57.280;27.070;2023-02-21T04:40:06;97452.84;;;-4.89;96.9
63691;BME280;49837;57.280;27.070;2023-02-21T04:41:06;97456.45;;;-4.92;96.89
63691;BME280;49837;57.280;27.070;2023-02-21T04:42:06;97454.91;;;-4.92;96.94
63691;BME280;49837;57.280;27.070;2023-02-21T04:43:06;97459.24;;;-4.88;96.83
63691;BME280;49837;57.280;27.070;2023-02-21T04:44:07;97459.55;;;-4.93;96.65
63691;BME280;49837;57.280;27.070;2023-02-21T04:45:07;97461.42;;;-4.94;96.7
63691;BME280;49837;57.280;27.070;2023-02-21T04:46:07;97465.33;;;-4.93;96.86
63691;BME280;49837;57.280;27.070;2023-02-21T04:47:08;97464.61;;;-4.95;96.84
63691;BME280;49837;57.280;27.070;2023-02-21T04:48:08;97472.2;;;-4.97;96.72
63691;BME280;49837;57.280;27.070;2023-02-21T04:49:11;97468.62;;;-4.97;96.82
63691;BME280;49837;57.280;27.070;2023-02-21T04:50:09;97479.95;;;-4.93;96.8
63691;BME280;49837;57.280;27.070;2023-02-21T04:51:10;97482.84;;;-4.9;96.63
63691;BME280;49837;57.280;27.070;2023-02-21T04:53:12;97490.94;;;-4.94;96.49
63691;BME280;49837;57.280;27.070;2023-02-21T04:54:12;97487.99;;;-5.01;96.43
63691;BME280;49837;57.280;27.070;2023-02-21T04:55:14;97491.8;;;-4.92;96.5
63691;BME280;49837;57.280;27.070;2023-02-21T04:56:13;97494.86;;;-5.04;96.09
63691;BME280;49837;57.280;27.070;2023-02-21T04:57:15;97501.95;;;-5.04;96.18
63691;BME280;49837;57.280;27.070;2023-02-21T04:58:14;97501.84;;;-5.03;96.15
63691;BME280;49837;57.280;27.070;2023-02-21T04:59:14;97507.08;;;-5.07;95.96
63691;BME280;49837;57.280;27.070;2023-02-21T05:00:15;97512.13;;;-5.08;95.94
63691;BME280;49837;57.280;27.070;2023-02-21T05:01:16;97514.2;;;-5.04;95.92
63691;BME280;49837;57.280;27.070;2023-02-21T05:02:15;97518.52;;;-5.03;96.0
63691;BME280;49837;57.280;27.070;2023-02-21T05:03:16;97517.97;;;-5.06;96.12
63691;BME280;49837;57.280;27.070;2023-02-21T05:04:16;97525.7;;;-5.08;96.25
63691;BME280;49837;57.280;27.070;2023-02-21T05:05:17;97523.55;;;-5.11;96.3
63691;BME280;49837;57.280;27.070;2023-02-21T05:06:19;97524.83;;;-5.09;96.2
63691;BME280;49837;57.280;27.070;2023-02-21T05:07:17;97528.75;;;-5.04;96.14
63691;BME280;49837;57.280;27.070;2023-02-21T05:08:18;97536.92;;;-5.09;96.07
63691;BME280;49837;57.280;27.070;2023-02-21T05:09:18;97539.97;;;-5.05;96.21
63691;BME280;49837;57.280;27.070;2023-02-21T05:10:19;97536.42;;;-5.05;96.04
63691;BME280;49837;57.280;27.070;2023-02-21T05:11:20;97544.28;;;-5.04;96.14
63691;BME280;49837;57.280;27.070;2023-02-21T05:12:19;97547.24;;;-5.0;96.21
63691;BME280;49837;57.280;27.070;2023-02-21T05:13:20;97544.83;;;-5.0;96.0
63691;BME280;49837;57.280;27.070;2023-02-21T05:14:20;97551.39;;;-5.0;96.17
63691;BME280;49837;57.280;27.070;2023-02-21T05:15:21;97555.59;;;-5.07;95.82
63691;BME280;49837;57.280;27.070;2023-02-21T05:16:21;97554.8;;;-5.0;95.94
63691;BME280;49837;57.280;27.070;2023-02-21T05:17:21;97558.63;;;-5.01;96.14
63691;BME280;49837;57.280;27.070;2023-02-21T05:18:22;97561.07;;;-5.01;96.25
63691;BME280;49837;57.280;27.070;2023-02-21T05:19:23;97573.12;;;-5.1;96.08
63691;BME280;49837;57.280;27.070;2023-02-21T05:20:23;97576.2;;;-5.09;96.21
63691;BME280;49837;57.280;27.070;2023-02-21T05:21:23;97576.38;;;-5.03;96.38
63691;BME280;49837;57.280;27.070;2023-02-21T05:22:24;97578.12;;;-5.08;95.97
63691;BME280;49837;57.280;27.070;2023-02-21T05:23:25;97577.66;;;-5.09;95.66
63691;BME280;49837;57.280;27.070;2023-02-21T05:24:29;97582.94;;;-5.08;95.76
63691;BME280;49837;57.280;27.070;2023-02-21T05:25:26;97588.98;;;-5.04;96.09
63691;BME280;49837;57.280;27.070;2023-02-21T05:26:31;97590.41;;;-4.99;96.36
63691;BME280;49837;57.280;27.070;2023-02-21T05:27:29;97595.16;;;-5.05;96.2
63691;BME280;49837;57.280;27.070;2023-02-21T05:28:29;97596.44;;;-5.01;96.11
63691;BME280;49837;57.280;27.070;2023-02-21T05:29:30;97607.11;;;-5.02;96.15
63691;BME280;49837;57.280;27.070;2023-02-21T05:30:30;97607.64;;;-5.08;95.6
63691;BME280;49837;57.280;27.070;2023-02-21T05:31:31;97606.23;;;-5.15;95.38
63691;BME280;49837;57.280;27.070;2023-02-21T05:32:31;97609.75;;;-5.09;95.58
63691;BME280;49837;57.280;27.070;2023-02-21T05:33:31;97613.79;;;-5.14;95.63
63691;BME280;49837;57.280;27.070;2023-02-21T05:34:32;97619.33;;;-5.16;95.51
63691;BME280;49837;57.280;27.070;2023-02-21T05:35:32;97619.69;;;-5.12;95.48
63691;BME280;49837;57.280;27.070;2023-02-21T05:36:33;97620.56;;;-5.09;95.5
63691;BME280;49837;57.280;27.070;2023-02-21T05:37:33;97622.48;;;-5.07;95.45
63691;BME280;49837;57.280;27.070;2023-02-21T05:38:43;97627.33;;;-5.12;95.26
63691;BME280;49837;57.280;27.070;2023-02-21T05:39:35;97625.08;;;-5.13;95.5
63691;BME280;49837;57.280;27.070;2023-02-21T05:40:36;97630.16;;;-5.1;95.5
63691;BME280;49837;57.280;27.070;2023-02-21T05:41:36;97632.72;;;-5.13;95.47
63691;BME280;49837;57.280;27.070;2023-02-21T05:42:36;97636.38;;;-5.14;95.23
63691;BME280;49837;57.280;27.070;2023-02-21T05:43:37;97636.36;;;-5.11;95.46
63691;BME280;49837;57.280;27.070;2023-02-21T05:44:37;97638.27;;;-5.07;95.32
63691;BME280;49837;57.280;27.070;2023-02-21T05:45:38;97643.27;;;-5.02;95.29
63691;BME280;49837;57.280;27.070;2023-02-21T05:46:38;97642.59;;;-5.08;95.12
63691;BME280;49837;57.280;27.070;2023-02-21T05:47:38;97646.09;;;-5.1;95.11
63691;BME280;49837;57.280;27.070;2023-02-21T05:48:39;97647.44;;;-5.15;95.1
63691;BME280;49837;57.280;27.070;2023-02-21T05:49:40;97653.86;;;-5.16;94.84
63691;BME280;49837;57.280;27.070;2023-02-21T05:50:40;97651.78;;;-5.09;94.83
63691;BME280;49837;57.280;27.070;2023-02-21T05:51:42;97655.63;;;-5.04;94.98
63691;BME280;49837;57.280;27.070;2023-02-21T05:52:41;97657.53;;;-5.05;95.03
63691;BME280;49837;57.280;27.070;2023-02-21T05:53:41;97656.72;;;-5.07;94.96
63691;BME280;49837;57.280;27.070;2023-02-21T05:54:42;97663.53;;;-5.06;95.2
63691;BME280;49837;57.280;27.070;2023-02-21T05:55:42;97666.66;;;-4.98;95.29
63691;BME280;49837;57.280;27.070;2023-02-21T05:56:43;97664.7;;;-4.98;95.16
63691;BME280;49837;57.280;27.070;2023-02-21T05:57:43;97670.67;;;-5.02;95.16
63691;BME280;49837;57.280;27.070;2023-02-21T05:58:43;97673.1;;;-5.03;95.24
63691;BME280;49837;57.280;27.070;2023-02-21T05:59:43;97678.09;;;-5.06;95.05
63691;BME280;49837;57.280;27.070;2023-02-21T06:00:44;97675.08;;;-5.16;94.59
63691;BME280;49837;57.280;27.070;2023-02-21T06:01:45;97685.22;;;-5.16;94.35
63691;BME280;49837;57.280;27.070;2023-02-21T06:02:45;97688.86;;;-5.11;94.59
63691;BME280;49837;57.280;27.070;2023-02-21T06:03:45;97684.05;;;-5.12;94.66
63691;BME280;49837;57.280;27.070;2023-02-21T06:04:45;97689.68;;;-5.13;94.95
63691;BME280;49837;57.280;27.070;2023-02-21T06:05:46;97692.74;;;-5.09;94.97
63691;BME280;49837;57.280;27.070;2023-02-21T06:06:46;97692.4;;;-5.06;95.01
63691;BME280;49837;57.280;27.070;2023-02-21T06:07:47;97700.61;;;-5.04;94.87
63691;BME280;49837;57.280;27.070;2023-02-21T06:08:48;97710.34;;;-5.15;94.88
63691;BME280;49837;57.280;27.070;2023-02-21T06:09:48;97707.94;;;-5.2;94.69
63691;BME280;49837;57.280;27.070;2023-02-21T06:10:48;97708.62;;;-5.25;94.61
63691;BME280;49837;57.280;27.070;2023-02-21T06:11:48;97717.97;;;-5.28;94.86
63691;BME280;49837;57.280;27.070;2023-02-21T06:12:49;97715.34;;;-5.23;95.0